Time;durP1;ratioP1;P1;durP2;ratioP2;P2;SDS_P1;SDS_P2;PMS_P1;PMS_P2;Temp;Humidity;BMP_temperature;BMP_pressure;BME280_temperature;BME280_humidity;BME280_pressure;Samples;Min_cycle;Max_cycle;Signal;HPM_P1;HPM_P2
2023/12/14 00:01:15;;;;;;;262.70;114.40;;;;;;;;;;107114;1255;59891;-80
2023/12/14 00:03:43;;;;;;;265.90;112.90;;;;;;;;;;107103;1253;60953;-80
2023/12/14 00:06:10;;;;;;;270.80;111.90;;;;;;;;;;107061;1255;61077;-80
2023/12/14 00:08:37;;;;;;;244.80;114.00;;;;;;;;;;106632;1252;59725;-80
2023/12/14 00:11:05;;;;;;;236.90;107.90;;;;;;;;;;106551;1252;61633;-80
2023/12/14 00:13:31;;;;;;;240.40;112.20;;;;;;;;;;106646;1251;62117;-80
2023/12/14 00:15:58;;;;;;;234.60;104.10;;;;;;;;;;106629;1253;60803;-81
2023/12/14 00:18:24;;;;;;;226.30;101.00;;;;;;;;;;106595;1254;59825;-79
2023/12/14 00:20:51;;;;;;;241.70;103.70;;;;;;;;;;106645;1255;61948;-80
2023/12/14 00:23:18;;;;;;;214.00;98.10;;;;;;;;;;106708;1254;61573;-80
2023/12/14 00:25:44;;;;;;;233.50;105.30;;;;;;;;;;106769;1251;59831;-80
2023/12/14 00:28:11;;;;;;;223.30;102.20;;;;;;;;;;106654;1254;59830;-80
2023/12/14 00:30:37;;;;;;;241.10;102.00;;;;;;;;;;106728;1251;59907;-80
2023/12/14 00:33:04;;;;;;;235.60;103.80;;;;;;;;;;106751;1251;59253;-80
2023/12/14 00:35:30;;;;;;;221.30;96.80;;;;;;;;;;106752;1254;59816;-80
2023/12/14 00:37:56;;;;;;;231.50;101.00;;;;;;;;;;106835;1251;59803;-81
2023/12/14 00:40:23;;;;;;;251.90;107.40;;;;;;;;;;107679;1254;59827;-80
2023/12/14 00:42:49;;;;;;;216.10;95.20;;;;;;;;;;107142;1251;59795;-80
2023/12/14 00:45:16;;;;;;;228.40;104.10;;;;;;;;;;107680;1251;59854;-80
2023/12/14 00:47:42;;;;;;;234.80;109.40;;;;;;;;;;106720;1251;59712;-81
2023/12/14 00:50:09;;;;;;;216.30;109.60;;;;;;;;;;106763;1254;60729;-80
2023/12/14 00:52:36;;;;;;;221.90;104.40;;;;;;;;;;106798;1251;59804;-80
2023/12/14 00:55:02;;;;;;;214.40;92.70;;;;;;;;;;107718;1252;59834;-80
2023/12/14 00:57:29;;;;;;;203.90;95.70;;;;;;;;;;106732;1251;59821;-80
2023/12/14 00:59:55;;;;;;;218.00;88.80;;;;;;;;;;107125;1251;61649;-79
2023/12/14 01:02:22;;;;;;;194.90;91.70;;;;;;;;;;106705;1251;59741;-80
2023/12/14 01:04:48;;;;;;;193.40;88.40;;;;;;;;;;106797;1251;59819;-80
2023/12/14 01:07:15;;;;;;;207.00;93.90;;;;;;;;;;106710;1251;59871;-80
2023/12/14 01:09:41;;;;;;;190.10;88.60;;;;;;;;;;106657;1254;59812;-80
2023/12/14 01:12:07;;;;;;;204.40;90.20;;;;;;;;;;106737;1251;60936;-80
2023/12/14 01:14:34;;;;;;;206.00;88.50;;;;;;;;;;106735;1251;59812;-80
2023/12/14 01:17:01;;;;;;;185.40;86.90;;;;;;;;;;106711;1251;59767;-80
2023/12/14 01:19:27;;;;;;;190.70;88.20;;;;;;;;;;106743;1256;59740;-80
2023/12/14 01:21:55;;;;;;;281.20;121.50;;;;;;;;;;106726;1251;59293;-80
2023/12/14 01:24:21;;;;;;;254.40;114.00;;;;;;;;;;106779;1251;63036;-80
2023/12/14 01:26:48;;;;;;;204.20;92.50;;;;;;;;;;106694;1251;59879;-80
2023/12/14 01:29:14;;;;;;;206.70;93.40;;;;;;;;;;107136;1251;61041;-80
2023/12/14 01:31:41;;;;;;;209.70;95.10;;;;;;;;;;107169;1251;59841;-80
2023/12/14 01:34:08;;;;;;;202.80;88.30;;;;;;;;;;107193;1251;60732;-80
2023/12/14 01:36:35;;;;;;;215.50;93.30;;;;;;;;;;107190;1251;61902;-80
2023/12/14 01:39:01;;;;;;;197.80;93.70;;;;;;;;;;107189;1251;59757;-80
2023/12/14 01:41:28;;;;;;;194.30;86.70;;;;;;;;;;107132;1251;60774;-81
2023/12/14 01:43:54;;;;;;;205.60;90.40;;;;;;;;;;107240;1251;59832;-82
2023/12/14 01:46:21;;;;;;;184.50;84.20;;;;;;;;;;107130;1251;59732;-80
2023/12/14 01:48:47;;;;;;;184.70;84.50;;;;;;;;;;107174;1251;60424;-80
2023/12/14 01:51:14;;;;;;;189.20;79.50;;;;;;;;;;106735;1251;59823;-80
2023/12/14 01:53:40;;;;;;;196.10;88.10;;;;;;;;;;106692;1251;60634;-81
2023/12/14 01:56:07;;;;;;;227.70;96.60;;;;;;;;;;107220;1251;59806;-80
2023/12/14 01:58:34;;;;;;;237.40;98.90;;;;;;;;;;107106;1251;59457;-81
2023/12/14 02:01:04;;;;;;;257.40;111.20;;;;;;;;;;106998;1255;60850;-80
2023/12/14 02:03:31;;;;;;;210.30;88.40;;;;;;;;;;107034;1254;59771;-80
2023/12/14 02:05:57;;;;;;;190.80;86.50;;;;;;;;;;106570;1256;59739;-80
2023/12/14 02:08:24;;;;;;;187.90;78.40;;;;;;;;;;106595;1251;59829;-80
2023/12/14 02:10:51;;;;;;;193.60;79.80;;;;;;;;;;106668;1254;60738;-80
2023/12/14 02:13:17;;;;;;;190.80;80.20;;;;;;;;;;106738;1251;61066;-80
2023/12/14 02:15:44;;;;;;;179.30;76.50;;;;;;;;;;106737;1251;59781;-80
2023/12/14 02:18:10;;;;;;;182.60;74.40;;;;;;;;;;107624;1251;59745;-80
2023/12/14 02:20:37;;;;;;;184.80;79.10;;;;;;;;;;108676;1251;59900;-80
2023/12/14 02:23:03;;;;;;;178.20;73.90;;;;;;;;;;106718;1251;60798;-80
2023/12/14 02:25:30;;;;;;;189.60;78.40;;;;;;;;;;106740;1251;59938;-80
2023/12/14 02:27:56;;;;;;;189.40;77.40;;;;;;;;;;106652;1251;60876;-80
2023/12/14 02:30:23;;;;;;;204.60;79.80;;;;;;;;;;107810;1251;60398;-80
2023/12/14 02:32:49;;;;;;;192.20;78.50;;;;;;;;;;106693;1251;60920;-80
2023/12/14 02:35:18;;;;;;;197.80;82.10;;;;;;;;;;106698;1254;59673;-80
2023/12/14 02:37:44;;;;;;;188.70;80.40;;;;;;;;;;106658;1253;61593;-80
2023/12/14 02:40:11;;;;;;;174.40;78.80;;;;;;;;;;106697;1251;59794;-80
2023/12/14 02:42:37;;;;;;;177.90;83.60;;;;;;;;;;107141;1251;59783;-80
2023/12/14 02:45:04;;;;;;;188.70;82.00;;;;;;;;;;106750;1251;60807;-80
2023/12/14 02:47:30;;;;;;;199.00;85.10;;;;;;;;;;106888;1251;59683;-80
2023/12/14 02:49:57;;;;;;;192.00;80.20;;;;;;;;;;106778;1251;62633;-81
2023/12/14 02:52:23;;;;;;;195.50;78.50;;;;;;;;;;106801;1251;59160;-81
2023/12/14 02:54:50;;;;;;;204.80;83.80;;;;;;;;;;106688;1251;59733;-81
2023/12/14 02:57:16;;;;;;;191.60;84.30;;;;;;;;;;106728;1252;61036;-80
2023/12/14 02:59:43;;;;;;;188.30;81.60;;;;;;;;;;107180;1251;59697;-81
2023/12/14 03:02:10;;;;;;;195.40;81.00;;;;;;;;;;106709;1251;61791;-80
2023/12/14 03:04:40;;;;;;;196.60;80.90;;;;;;;;;;107106;1251;59891;-80
2023/12/14 03:07:06;;;;;;;198.10;80.40;;;;;;;;;;107131;1251;59910;-80
2023/12/14 03:09:33;;;;;;;200.20;76.50;;;;;;;;;;107138;1251;59882;-80
2023/12/14 03:12:00;;;;;;;196.50;82.40;;;;;;;;;;107702;1251;59932;-82
2023/12/14 03:14:31;;;;;;;201.60;82.50;;;;;;;;;;107159;1251;60453;-80
2023/12/14 03:16:57;;;;;;;212.90;77.70;;;;;;;;;;107132;1251;59742;-80
2023/12/14 03:19:24;;;;;;;189.90;75.30;;;;;;;;;;107124;1251;60923;-80
2023/12/14 03:21:50;;;;;;;196.50;78.10;;;;;;;;;;107166;1251;60807;-80
2023/12/14 03:24:17;;;;;;;194.30;77.10;;;;;;;;;;107170;1251;59841;-80
2023/12/14 03:26:43;;;;;;;198.20;79.80;;;;;;;;;;106680;1251;60992;-80
2023/12/14 03:29:09;;;;;;;180.90;77.10;;;;;;;;;;106681;1251;60851;-80
2023/12/14 03:31:36;;;;;;;165.90;70.20;;;;;;;;;;106736;1251;59212;-79
2023/12/14 03:34:03;;;;;;;178.70;72.10;;;;;;;;;;106687;1251;59838;-80
2023/12/14 03:36:29;;;;;;;168.20;69.10;;;;;;;;;;106737;1251;59754;-81
2023/12/14 03:38:56;;;;;;;169.30;71.30;;;;;;;;;;107168;1250;59833;-80
2023/12/14 03:41:22;;;;;;;187.30;74.40;;;;;;;;;;109626;1251;59088;-80
2023/12/14 03:43:49;;;;;;;172.40;72.10;;;;;;;;;;109610;1250;59305;-80
2023/12/14 03:46:15;;;;;;;175.80;73.60;;;;;;;;;;107591;1251;60842;-80
2023/12/14 03:48:42;;;;;;;183.60;73.90;;;;;;;;;;106692;1251;59814;-80
2023/12/14 03:51:08;;;;;;;172.50;71.70;;;;;;;;;;106709;1251;61689;-80
2023/12/14 03:53:35;;;;;;;166.40;73.40;;;;;;;;;;106723;1251;59179;-80
2023/12/14 03:56:01;;;;;;;171.80;76.10;;;;;;;;;;107195;1251;59786;-80
2023/12/14 03:58:28;;;;;;;185.90;76.20;;;;;;;;;;107239;1251;59803;-80
2023/12/14 04:00:54;;;;;;;173.50;72.00;;;;;;;;;;107074;1252;59835;-80
2023/12/14 04:03:21;;;;;;;164.90;67.50;;;;;;;;;;106631;1251;62067;-80
2023/12/14 04:05:47;;;;;;;158.30;66.20;;;;;;;;;;106522;1254;61989;-80
2023/12/14 04:08:14;;;;;;;157.10;64.40;;;;;;;;;;106693;1251;62182;-80
2023/12/14 04:10:40;;;;;;;158.10;63.80;;;;;;;;;;106611;1256;60848;-81
2023/12/14 04:13:07;;;;;;;166.90;72.10;;;;;;;;;;106716;1254;59886;-80
2023/12/14 04:15:33;;;;;;;174.10;74.50;;;;;;;;;;106782;1251;60019;-80
2023/12/14 04:18:00;;;;;;;173.40;73.00;;;;;;;;;;106701;1251;59766;-80
2023/12/14 04:20:26;;;;;;;167.80;71.40;;;;;;;;;;106784;1251;60723;-80
2023/12/14 04:22:53;;;;;;;168.30;70.10;;;;;;;;;;106788;1251;60959;-80
2023/12/14 04:25:19;;;;;;;158.60;66.80;;;;;;;;;;106822;1250;60792;-81
2023/12/14 04:27:46;;;;;;;170.50;70.60;;;;;;;;;;106810;1251;59767;-81
2023/12/14 04:30:12;;;;;;;158.90;66.90;;;;;;;;;;106855;1251;61041;-80
2023/12/14 04:32:39;;;;;;;173.60;77.40;;;;;;;;;;107095;1251;59823;-80
2023/12/14 04:35:06;;;;;;;173.10;77.10;;;;;;;;;;107186;1251;60851;-80
2023/12/14 04:37:32;;;;;;;156.80;65.30;;;;;;;;;;106756;1254;59848;-80
2023/12/14 04:39:59;;;;;;;154.50;62.70;;;;;;;;;;106719;1251;59464;-80
2023/12/14 04:42:26;;;;;;;165.70;69.30;;;;;;;;;;106671;1254;61672;-80
2023/12/14 04:44:52;;;;;;;143.20;65.20;;;;;;;;;;106737;1251;59731;-79
2023/12/14 04:47:19;;;;;;;166.90;73.70;;;;;;;;;;106755;1250;59846;-80
2023/12/14 04:49:45;;;;;;;150.70;64.90;;;;;;;;;;106682;1251;59793;-80
2023/12/14 04:52:12;;;;;;;138.60;58.80;;;;;;;;;;106684;1251;59261;-80
2023/12/14 04:54:40;;;;;;;158.60;73.90;;;;;;;;;;106642;1255;59807;-80
2023/12/14 04:57:06;;;;;;;160.90;74.10;;;;;;;;;;106690;1251;60552;-79
2023/12/14 04:59:33;;;;;;;155.60;69.50;;;;;;;;;;106593;1251;59755;-80
2023/12/14 05:01:59;;;;;;;149.50;69.70;;;;;;;;;;106605;1251;60243;-80
2023/12/14 05:04:26;;;;;;;148.10;66.20;;;;;;;;;;106597;1252;59365;-80
2023/12/14 05:06:52;;;;;;;150.50;68.50;;;;;;;;;;106608;1252;59915;-80
2023/12/14 05:09:19;;;;;;;141.30;62.80;;;;;;;;;;106890;1253;59916;-80
2023/12/14 05:11:45;;;;;;;160.90;67.60;;;;;;;;;;109178;1251;59895;-80
2023/12/14 05:14:12;;;;;;;143.40;65.10;;;;;;;;;;109508;1251;58790;-80
2023/12/14 05:16:39;;;;;;;155.70;66.80;;;;;;;;;;106758;1251;59870;-80
2023/12/14 05:19:05;;;;;;;143.30;64.10;;;;;;;;;;107069;1253;59827;-80
2023/12/14 05:21:32;;;;;;;143.20;63.90;;;;;;;;;;107096;1251;60908;-80
2023/12/14 05:23:58;;;;;;;155.10;67.90;;;;;;;;;;107070;1251;60857;-80
2023/12/14 05:26:25;;;;;;;161.70;70.10;;;;;;;;;;107113;1251;59807;-80
2023/12/14 05:28:52;;;;;;;157.50;66.70;;;;;;;;;;107061;1250;61906;-80
2023/12/14 05:31:18;;;;;;;154.10;63.10;;;;;;;;;;107129;1251;60003;-80
2023/12/14 05:33:45;;;;;;;160.80;69.20;;;;;;;;;;106671;1251;59945;-79
2023/12/14 05:36:11;;;;;;;158.30;67.70;;;;;;;;;;106665;1251;59823;-80
2023/12/14 05:38:38;;;;;;;171.90;67.50;;;;;;;;;;106694;1251;59816;-80
2023/12/14 05:41:04;;;;;;;162.30;65.60;;;;;;;;;;106682;1251;62619;-80
2023/12/14 05:43:31;;;;;;;145.50;65.50;;;;;;;;;;106678;1254;60763;-80
2023/12/14 05:45:58;;;;;;;173.50;66.80;;;;;;;;;;106701;1250;59470;-79
2023/12/14 05:48:26;;;;;;;178.00;72.50;;;;;;;;;;106636;1251;59920;-80
2023/12/14 05:50:53;;;;;;;156.90;67.90;;;;;;;;;;106682;1251;59758;-80
2023/12/14 05:53:19;;;;;;;170.10;71.40;;;;;;;;;;106658;1251;60874;-80
2023/12/14 05:55:46;;;;;;;159.40;66.60;;;;;;;;;;106681;1251;60790;-80
2023/12/14 05:58:12;;;;;;;162.20;68.00;;;;;;;;;;106660;1251;59821;-80
2023/12/14 06:00:39;;;;;;;152.10;66.80;;;;;;;;;;106754;1251;60117;-80
2023/12/14 06:03:06;;;;;;;158.00;67.10;;;;;;;;;;107273;1250;59792;-79
2023/12/14 06:05:32;;;;;;;159.90;65.90;;;;;;;;;;108900;1250;61859;-80
2023/12/14 06:07:59;;;;;;;156.00;65.90;;;;;;;;;;109510;1251;58805;-80
2023/12/14 06:10:25;;;;;;;171.60;70.00;;;;;;;;;;107261;1252;60787;-80
2023/12/14 06:12:52;;;;;;;170.00;71.90;;;;;;;;;;109419;1251;59906;-79
2023/12/14 06:15:18;;;;;;;154.90;70.20;;;;;;;;;;106903;1251;61650;-80
2023/12/14 06:17:45;;;;;;;173.40;75.40;;;;;;;;;;106787;1251;61968;-80
2023/12/14 06:20:12;;;;;;;190.00;82.50;;;;;;;;;;106876;1251;62089;-80
2023/12/14 06:22:38;;;;;;;194.10;81.30;;;;;;;;;;106910;1251;59890;-81
2023/12/14 06:25:05;;;;;;;215.00;98.40;;;;;;;;;;107098;1251;59746;-81
2023/12/14 06:27:32;;;;;;;205.80;89.30;;;;;;;;;;107111;1251;60791;-80
2023/12/14 06:29:58;;;;;;;188.10;77.50;;;;;;;;;;107002;1251;59909;-81
2023/12/14 06:32:24;;;;;;;183.90;73.10;;;;;;;;;;106973;1251;168889;-80
2023/12/14 06:34:51;;;;;;;155.60;66.00;;;;;;;;;;107009;1251;59694;-80
2023/12/14 06:37:18;;;;;;;151.40;63.70;;;;;;;;;;107074;1251;59909;-80
2023/12/14 06:39:44;;;;;;;164.30;60.90;;;;;;;;;;107021;1251;59815;-80
2023/12/14 06:42:11;;;;;;;153.30;61.50;;;;;;;;;;106966;1251;62993;-80
2023/12/14 06:44:38;;;;;;;171.10;68.60;;;;;;;;;;106960;1251;59781;-79
2023/12/14 06:47:04;;;;;;;147.50;64.70;;;;;;;;;;107201;1251;60661;-80
2023/12/14 06:49:31;;;;;;;142.40;57.90;;;;;;;;;;106980;1251;59807;-80
2023/12/14 06:51:57;;;;;;;133.90;55.90;;;;;;;;;;107194;1251;59709;-80
2023/12/14 06:54:24;;;;;;;145.90;58.70;;;;;;;;;;107285;1250;61576;-80
2023/12/14 06:56:50;;;;;;;135.10;58.60;;;;;;;;;;108794;1251;58947;-80
2023/12/14 06:59:17;;;;;;;146.50;59.20;;;;;;;;;;109514;1251;59366;-80
2023/12/14 07:01:43;;;;;;;139.80;63.80;;;;;;;;;;109536;1251;58907;-80
2023/12/14 07:04:10;;;;;;;144.30;64.00;;;;;;;;;;109532;1251;59823;-79
2023/12/14 07:06:36;;;;;;;136.80;61.20;;;;;;;;;;109494;1251;59130;-79
2023/12/14 07:09:03;;;;;;;143.10;62.90;;;;;;;;;;109468;1251;59203;-80
2023/12/14 07:11:30;;;;;;;191.00;79.90;;;;;;;;;;107947;1251;60992;-80
2023/12/14 07:13:56;;;;;;;161.90;75.60;;;;;;;;;;109499;1251;58982;-80
2023/12/14 07:16:23;;;;;;;186.30;76.40;;;;;;;;;;109521;1251;59193;-80
2023/12/14 07:18:49;;;;;;;185.70;79.10;;;;;;;;;;109534;1251;59120;-80
2023/12/14 07:21:16;;;;;;;187.10;80.20;;;;;;;;;;109440;1251;58892;-80
2023/12/14 07:23:43;;;;;;;183.00;82.60;;;;;;;;;;109425;1251;59037;-80
2023/12/14 07:26:09;;;;;;;182.20;83.20;;;;;;;;;;109505;1251;59289;-80
2023/12/14 07:28:36;;;;;;;189.80;83.20;;;;;;;;;;109497;1251;59086;-81
2023/12/14 07:31:02;;;;;;;158.50;72.80;;;;;;;;;;109478;1250;59850;-80
2023/12/14 07:33:29;;;;;;;150.10;63.30;;;;;;;;;;109458;1251;59144;-80
2023/12/14 07:35:55;;;;;;;154.70;63.40;;;;;;;;;;109435;1251;60870;-80
2023/12/14 07:38:22;;;;;;;154.30;63.30;;;;;;;;;;109436;1251;58951;-80
2023/12/14 07:40:50;;;;;;;162.00;70.10;;;;;;;;;;109497;1251;58835;-80
2023/12/14 07:43:16;;;;;;;151.50;69.10;;;;;;;;;;109490;1251;61576;-79
2023/12/14 07:45:43;;;;;;;145.70;65.40;;;;;;;;;;109509;1251;59006;-80
2023/12/14 07:48:10;;;;;;;138.30;62.70;;;;;;;;;;109474;1251;61018;-80
2023/12/14 07:50:36;;;;;;;137.70;62.10;;;;;;;;;;109411;1250;59237;-80
2023/12/14 07:53:03;;;;;;;143.90;62.80;;;;;;;;;;109498;1251;59258;-80
2023/12/14 07:55:30;;;;;;;152.20;70.00;;;;;;;;;;109408;1251;58915;-80
2023/12/14 07:57:56;;;;;;;168.90;73.60;;;;;;;;;;109413;1251;59010;-80
2023/12/14 08:00:23;;;;;;;175.90;73.70;;;;;;;;;;109419;1251;59574;-80
2023/12/14 08:02:49;;;;;;;188.00;84.20;;;;;;;;;;109465;1251;59222;-80
2023/12/14 08:05:16;;;;;;;200.50;87.60;;;;;;;;;;109475;1251;59098;-79
2023/12/14 08:07:42;;;;;;;171.30;75.40;;;;;;;;;;109421;1252;59412;-80
2023/12/14 08:10:10;;;;;;;180.90;80.80;;;;;;;;;;109495;1252;59196;-79
2023/12/14 08:12:36;;;;;;;142.50;68.40;;;;;;;;;;109095;1251;60492;-79
2023/12/14 08:15:03;;;;;;;130.90;59.50;;;;;;;;;;107592;1251;59754;-80
2023/12/14 08:17:29;;;;;;;138.20;60.10;;;;;;;;;;107589;1251;59164;-80
2023/12/14 08:19:56;;;;;;;130.20;61.80;;;;;;;;;;107269;1253;59766;-79
2023/12/14 08:22:22;;;;;;;137.30;60.20;;;;;;;;;;107182;1251;59994;-80
2023/12/14 08:24:50;;;;;;;93.80;45.90;;;;;;;;;;107194;1251;59847;-79
2023/12/14 08:27:16;;;;;;;82.70;37.70;;;;;;;;;;107341;1253;59609;-80
2023/12/14 08:29:44;;;;;;;59.30;28.60;;;;;;;;;;107231;1250;62045;-81
2023/12/14 08:32:11;;;;;;;50.50;25.00;;;;;;;;;;109466;1251;62856;-81
2023/12/14 08:34:37;;;;;;;48.50;22.90;;;;;;;;;;109474;1251;59141;-81
2023/12/14 08:37:04;;;;;;;39.70;21.30;;;;;;;;;;109481;1251;59208;-81
2023/12/14 08:39:30;;;;;;;42.70;21.90;;;;;;;;;;108671;1251;59826;-81
2023/12/14 08:41:57;;;;;;;46.80;23.50;;;;;;;;;;107333;1251;60647;-80
2023/12/14 08:44:23;;;;;;;64.20;33.50;;;;;;;;;;107306;1251;60311;-80
2023/12/14 08:46:50;;;;;;;53.20;24.40;;;;;;;;;;107500;1251;59444;-80
2023/12/14 08:49:16;;;;;;;45.90;24.90;;;;;;;;;;107410;1251;60871;-80
2023/12/14 08:51:43;;;;;;;41.90;23.80;;;;;;;;;;107403;1251;59873;-80
2023/12/14 08:54:09;;;;;;;48.10;25.30;;;;;;;;;;107371;1251;59680;-79
2023/12/14 08:56:36;;;;;;;41.60;22.40;;;;;;;;;;107475;1251;62821;-79
2023/12/14 08:59:03;;;;;;;42.30;21.50;;;;;;;;;;107462;1250;59741;-79
2023/12/14 09:01:30;;;;;;;39.70;21.30;;;;;;;;;;107887;1251;60738;-80
2023/12/14 09:03:56;;;;;;;43.50;23.50;;;;;;;;;;108110;1250;61034;-80
2023/12/14 09:06:23;;;;;;;35.80;18.10;;;;;;;;;;108155;1251;61133;-80
2023/12/14 09:08:49;;;;;;;35.80;20.00;;;;;;;;;;108354;1251;61559;-80
2023/12/14 09:11:16;;;;;;;32.10;19.10;;;;;;;;;;108775;1251;60597;-80
2023/12/14 09:13:43;;;;;;;34.70;19.00;;;;;;;;;;108830;1251;59202;-79
2023/12/14 09:16:10;;;;;;;37.40;19.20;;;;;;;;;;108112;1251;61360;-80
2023/12/14 09:18:36;;;;;;;35.50;19.10;;;;;;;;;;108100;1251;59176;-81
2023/12/14 09:21:04;;;;;;;35.70;19.90;;;;;;;;;;108103;1250;59818;-80
2023/12/14 09:23:30;;;;;;;35.60;19.50;;;;;;;;;;108084;1251;59727;-79
2023/12/14 09:25:59;;;;;;;36.40;22.80;;;;;;;;;;107381;1250;62044;-79
2023/12/14 09:28:26;;;;;;;39.50;21.70;;;;;;;;;;107454;1251;60990;-81
2023/12/14 09:30:52;;;;;;;38.40;20.60;;;;;;;;;;108295;1251;59772;-80
2023/12/14 09:33:19;;;;;;;40.70;20.50;;;;;;;;;;109500;1251;59236;-80
2023/12/14 09:35:46;;;;;;;40.90;19.40;;;;;;;;;;109527;1251;59138;-81
2023/12/14 09:38:15;;;;;;;37.60;20.60;;;;;;;;;;109492;1251;58920;-81
2023/12/14 09:40:41;;;;;;;;;;;;;;;;;;108415;1251;59208;-80
2023/12/14 09:43:08;;;;;;;35.80;19.40;;;;;;;;;;107926;1254;60765;-80
2023/12/14 09:45:35;;;;;;;37.30;18.90;;;;;;;;;;107944;1251;61347;-80
2023/12/14 09:48:02;;;;;;;48.20;23.20;;;;;;;;;;107589;1256;59699;-80
2023/12/14 09:50:29;;;;;;;67.10;37.10;;;;;;;;;;107604;1251;60796;-80
2023/12/14 09:52:55;;;;;;;50.60;29.70;;;;;;;;;;107495;1251;60725;-80
2023/12/14 09:55:21;;;;;;;51.00;29.30;;;;;;;;;;107612;1251;60883;-80
2023/12/14 09:57:48;;;;;;;86.90;44.10;;;;;;;;;;107643;1254;60823;-80
2023/12/14 10:00:30;;;;;;;98.00;52.90;;;;;;;;;;107539;1251;60311;-80
2023/12/14 10:02:57;;;;;;;76.50;44.00;;;;;;;;;;107502;1251;59307;-80
2023/12/14 10:05:23;;;;;;;57.20;33.60;;;;;;;;;;107817;1250;60887;-80
2023/12/14 10:07:50;;;;;;;50.40;26.70;;;;;;;;;;107731;1250;60737;-80
2023/12/14 10:10:16;;;;;;;55.80;32.40;;;;;;;;;;107746;1251;59704;-80
2023/12/14 10:12:55;;;;;;;51.10;28.70;;;;;;;;;;107760;1251;59623;-79
2023/12/14 10:15:24;;;;;;;44.80;24.90;;;;;;;;;;107745;1251;59643;-80
2023/12/14 10:17:54;;;;;;;40.20;21.50;;;;;;;;;;107849;1251;59819;-80
2023/12/14 10:20:23;;;;;;;44.70;25.70;;;;;;;;;;107715;1251;61052;-79
2023/12/14 10:22:50;;;;;;;43.00;25.80;;;;;;;;;;107538;1251;63277;-80
2023/12/14 10:25:20;;;;;;;39.80;21.20;;;;;;;;;;107510;1251;61235;-80
2023/12/14 10:27:47;;;;;;;50.90;25.20;;;;;;;;;;107585;1251;62083;-80
2023/12/14 10:30:15;;;;;;;54.10;26.10;;;;;;;;;;107518;1254;59879;-80
2023/12/14 10:32:41;;;;;;;59.50;32.60;;;;;;;;;;107575;1251;59243;-80
2023/12/14 10:35:08;;;;;;;52.50;29.30;;;;;;;;;;109345;1251;58896;-80
2023/12/14 10:37:36;;;;;;;61.30;30.90;;;;;;;;;;109424;1251;59067;-80
2023/12/14 10:40:05;;;;;;;64.10;32.30;;;;;;;;;;108442;1251;60373;-80
2023/12/14 10:42:31;;;;;;;107.60;49.90;;;;;;;;;;107828;1251;59798;-81
2023/12/14 10:44:58;;;;;;;78.50;38.70;;;;;;;;;;107922;1251;59337;-81
2023/12/14 10:47:24;;;;;;;76.80;39.70;;;;;;;;;;107858;1251;59190;-80
2023/12/14 10:49:51;;;;;;;60.80;31.70;;;;;;;;;;107890;1251;59133;-80
2023/12/14 10:52:18;;;;;;;64.50;31.60;;;;;;;;;;107852;1251;59747;-80
2023/12/14 10:54:44;;;;;;;83.70;42.40;;;;;;;;;;107334;1251;59884;-80
2023/12/14 10:57:11;;;;;;;50.80;28.70;;;;;;;;;;107343;1251;61941;-80
2023/12/14 10:59:38;;;;;;;54.50;33.40;;;;;;;;;;107296;1251;62642;-80
2023/12/14 11:02:11;;;;;;;131.40;78.30;;;;;;;;;;107386;1251;60822;-80
2023/12/14 11:04:58;;;;;;;158.00;90.80;;;;;;;;;;107338;1252;60881;-81
2023/12/14 11:07:44;;;;;;;80.90;48.20;;;;;;;;;;109445;1251;59149;-80
2023/12/14 11:10:11;;;;;;;68.50;41.50;;;;;;;;;;109518;1251;58930;-80
2023/12/14 11:12:37;;;;;;;50.30;30.60;;;;;;;;;;109342;1251;60739;-80
2023/12/14 11:15:05;;;;;;;60.40;34.50;;;;;;;;;;107302;1251;59486;-80
2023/12/14 11:17:34;;;;;;;47.60;25.90;;;;;;;;;;107381;1251;60747;-79
2023/12/14 11:20:19;;;;;;;35.20;20.30;;;;;;;;;;107299;1250;61622;-80
2023/12/14 11:22:46;;;;;;;50.20;28.70;;;;;;;;;;107350;1251;59498;-80
2023/12/14 11:25:13;;;;;;;47.30;25.80;;;;;;;;;;109434;1251;61646;-79
2023/12/14 11:27:43;;;;;;;43.50;26.70;;;;;;;;;;109519;1251;59818;-80
2023/12/14 11:30:11;;;;;;;42.30;26.00;;;;;;;;;;109489;1252;61014;-81
2023/12/14 11:32:37;;;;;;;40.60;26.80;;;;;;;;;;109500;1251;58894;-80
2023/12/14 11:35:04;;;;;;;44.10;26.40;;;;;;;;;;108615;1251;59264;-80
2023/12/14 11:37:33;;;;;;;46.30;25.80;;;;;;;;;;107493;1251;61624;-80
2023/12/14 11:39:59;;;;;;;;;;;;;;;;;;107236;1253;59654;-80
2023/12/14 11:42:31;;;;;;;49.40;25.60;;;;;;;;;;107253;1252;59752;-80
2023/12/14 11:44:57;;;;;;;47.00;26.20;;;;;;;;;;107234;1250;61016;-81
2023/12/14 11:47:24;;;;;;;67.00;38.10;;;;;;;;;;107470;1251;59808;-80
2023/12/14 11:49:50;;;;;;;169.90;94.00;;;;;;;;;;107246;1251;59728;-81
2023/12/14 11:52:17;;;;;;;268.00;140.70;;;;;;;;;;107297;1251;59884;-79
2023/12/14 11:54:44;;;;;;;247.00;141.90;;;;;;;;;;107337;1253;60566;-80
2023/12/14 11:57:11;;;;;;;179.10;105.80;;;;;;;;;;107414;1251;60864;-80
2023/12/14 11:59:37;;;;;;;226.80;121.90;;;;;;;;;;107329;1254;60878;-80
2023/12/14 12:02:04;;;;;;;204.30;107.10;;;;;;;;;;107220;1253;62563;-80
2023/12/14 12:04:30;;;;;;;313.40;139.30;;;;;;;;;;107288;1251;59882;-80
2023/12/14 12:07:01;;;;;;;273.20;134.40;;;;;;;;;;107483;1251;60649;-80
2023/12/14 12:09:43;;;;;;;117.30;62.70;;;;;;;;;;109464;1251;59155;-81
2023/12/14 12:12:10;;;;;;;122.80;62.00;;;;;;;;;;109523;1251;59148;-81
2023/12/14 12:14:37;;;;;;;118.40;64.10;;;;;;;;;;109502;1253;62894;-80
2023/12/14 12:17:04;;;;;;;94.10;49.90;;;;;;;;;;109514;1251;59607;-80
2023/12/14 12:19:31;;;;;;;96.30;52.00;;;;;;;;;;109535;1251;59444;-79
2023/12/14 12:21:58;;;;;;;86.40;50.30;;;;;;;;;;109528;1251;59196;-80
2023/12/14 12:24:24;;;;;;;81.80;53.20;;;;;;;;;;109545;1251;59240;-80
2023/12/14 12:26:51;;;;;;;67.80;38.90;;;;;;;;;;109512;1254;62739;-80
2023/12/14 12:29:17;;;;;;;59.00;34.30;;;;;;;;;;109532;1251;59237;-80
2023/12/14 12:31:45;;;;;;;56.00;32.40;;;;;;;;;;109521;1251;58943;-80
2023/12/14 12:34:12;;;;;;;54.40;29.70;;;;;;;;;;109543;1254;58933;-80
2023/12/14 12:36:38;;;;;;;41.90;24.30;;;;;;;;;;109475;1250;59301;-80
2023/12/14 12:39:06;;;;;;;40.40;23.40;;;;;;;;;;109511;1251;59357;-80
2023/12/14 12:41:41;;;;;;;45.30;24.50;;;;;;;;;;109509;1253;59371;-80
2023/12/14 12:44:08;;;;;;;42.20;23.30;;;;;;;;;;109460;1251;60548;-81
2023/12/14 12:46:35;;;;;;;46.10;25.30;;;;;;;;;;109486;1251;59367;-80
2023/12/14 12:49:02;;;;;;;50.10;28.90;;;;;;;;;;109445;1253;59248;-80
2023/12/14 12:51:29;;;;;;;50.30;25.00;;;;;;;;;;109539;1250;62055;-80
2023/12/14 12:53:57;;;;;;;89.70;50.00;;;;;;;;;;109466;1251;58937;-80
2023/12/14 12:56:24;;;;;;;53.50;30.50;;;;;;;;;;109475;1254;60116;-80
2023/12/14 12:58:53;;;;;;;57.30;27.90;;;;;;;;;;108571;1250;61678;-80
2023/12/14 13:01:23;;;;;;;57.90;32.10;;;;;;;;;;107239;1251;61068;-81
2023/12/14 13:03:56;;;;;;;47.80;25.80;;;;;;;;;;107306;1251;61586;-80
2023/12/14 13:06:24;;;;;;;44.90;24.50;;;;;;;;;;107372;1253;60831;-80
2023/12/14 13:08:50;;;;;;;56.40;32.00;;;;;;;;;;107353;1253;59793;-80
2023/12/14 13:11:17;;;;;;;44.90;24.00;;;;;;;;;;107425;1251;59743;-80
2023/12/14 13:13:44;;;;;;;59.90;33.10;;;;;;;;;;107464;1251;59246;-80
2023/12/14 13:16:13;;;;;;;59.10;33.20;;;;;;;;;;107512;1251;61752;-80
2023/12/14 13:18:40;;;;;;;47.10;26.30;;;;;;;;;;108309;1251;60734;-80
2023/12/14 13:21:06;;;;;;;52.10;30.60;;;;;;;;;;109515;1253;59773;-81
2023/12/14 13:23:33;;;;;;;61.20;35.30;;;;;;;;;;108348;1253;59149;-80
2023/12/14 13:26:00;;;;;;;67.00;40.70;;;;;;;;;;109509;1251;59755;-80
2023/12/14 13:28:26;;;;;;;66.00;36.50;;;;;;;;;;109495;1251;59185;-80
2023/12/14 13:30:54;;;;;;;90.40;56.20;;;;;;;;;;107395;1253;60813;-79
2023/12/14 13:33:21;;;;;;;92.00;55.90;;;;;;;;;;107443;1252;60822;-80
2023/12/14 13:35:47;;;;;;;68.40;40.70;;;;;;;;;;107558;1253;59762;-80
2023/12/14 13:38:14;;;;;;;75.00;44.10;;;;;;;;;;107619;1251;59161;-79
2023/12/14 13:40:40;;;;;;;104.40;56.60;;;;;;;;;;107626;1251;62935;-80
2023/12/14 13:43:10;;;;;;;67.00;36.80;;;;;;;;;;107263;1253;59815;-81
2023/12/14 13:45:37;;;;;;;93.70;45.10;;;;;;;;;;107545;1255;59754;-81
2023/12/14 13:48:04;;;;;;;131.80;59.40;;;;;;;;;;107333;1251;59845;-80
2023/12/14 13:50:30;;;;;;;91.30;45.90;;;;;;;;;;107318;1251;59732;-80
2023/12/14 13:52:57;;;;;;;94.00;46.30;;;;;;;;;;107225;1251;62888;-80
2023/12/14 13:55:24;;;;;;;77.30;41.20;;;;;;;;;;107385;1253;60963;-80